Time;durP1;ratioP1;P1;durP2;ratioP2;P2;SDS_P1;SDS_P2;PMS_P1;PMS_P2;Temp;Humidity;BMP_temperature;BMP_pressure;BME280_temperature;BME280_humidity;BME280_pressure;Samples;Min_cycle;Max_cycle;Signal;HPM_P1;HPM_P2
2023/09/11 00:01:44;;;;;;;9.53;8.73;;;31.60;50.20;;;;;;5035718;28;20453;-77
2023/09/11 00:04:12;;;;;;;10.67;9.67;;;31.60;50.20;;;;;;5035667;28;20478;-78
2023/09/11 00:06:40;;;;;;;10.23;9.40;;;31.60;50.40;;;;;;5035402;28;20451;-78
2023/09/11 00:09:08;;;;;;;10.10;9.20;;;31.60;50.20;;;;;;5036112;28;20481;-78
2023/09/11 00:11:36;;;;;;;9.60;8.70;;;31.60;50.40;;;;;;5036879;28;20437;-78
2023/09/11 00:14:06;;;;;;;9.77;8.87;;;31.60;50.40;;;;;;5036400;28;20862;-78
2023/09/11 00:16:33;;;;;;;9.20;8.40;;;31.50;50.40;;;;;;5036407;28;20466;-78
2023/09/11 00:19:01;;;;;;;9.90;9.00;;;31.50;50.40;;;;;;5036850;28;20501;-79
2023/09/11 00:21:29;;;;;;;9.33;8.60;;;31.50;50.40;;;;;;5035593;28;20529;-78
2023/09/11 00:23:57;;;;;;;9.80;9.00;;;31.50;50.50;;;;;;5034310;28;20439;-77
2023/09/11 00:26:25;;;;;;;9.33;8.63;;;31.40;50.50;;;;;;5033807;28;20535;-77
2023/09/11 00:28:53;;;;;;;10.00;9.07;;;31.40;50.60;;;;;;5033551;28;20471;-77
2023/09/11 00:31:22;;;;;;;9.90;9.00;;;31.40;50.60;;;;;;5033785;28;20498;-77
2023/09/11 00:33:50;;;;;;;9.30;8.50;;;31.40;50.60;;;;;;5033790;28;20814;-77
2023/09/11 00:36:18;;;;;;;9.87;8.97;;;31.30;50.60;;;;;;5033479;28;20447;-77
2023/09/11 00:38:49;;;;;;;9.73;8.90;;;31.30;50.60;;;;;;5034016;28;20447;-77
2023/09/11 00:41:17;;;;;;;9.50;8.70;;;31.30;50.60;;;;;;5034104;28;20474;-77
2023/09/11 00:43:46;;;;;;;9.60;8.80;;;31.30;50.60;;;;;;5033581;28;20452;-78
2023/09/11 00:46:14;;;;;;;10.20;9.20;;;31.30;50.80;;;;;;5033493;28;20512;-77
2023/09/11 00:48:44;;;;;;;8.90;8.20;;;31.30;50.70;;;;;;5033331;28;20870;-78
2023/09/11 00:51:12;;;;;;;9.50;8.70;;;31.30;50.70;;;;;;5034118;28;20507;-77
2023/09/11 00:53:40;;;;;;;9.60;8.70;;;31.20;50.80;;;;;;5034723;28;20436;-78
2023/09/11 00:56:08;;;;;;;9.50;8.70;;;31.30;50.80;;;;;;5034722;28;20931;-77
2023/09/11 00:58:37;;;;;;;8.90;8.13;;;31.20;50.70;;;;;;5035246;28;20526;-78
2023/09/11 01:01:05;;;;;;;8.77;8.00;;;31.20;50.80;;;;;;5035293;28;20438;-78
2023/09/11 01:03:34;;;;;;;9.87;8.87;;;31.20;50.80;;;;;;5035146;28;20453;-78
2023/09/11 01:06:03;;;;;;;8.90;8.20;;;31.20;50.80;;;;;;5035348;28;20421;-78
2023/09/11 01:08:32;;;;;;;8.50;7.80;;;31.10;50.80;;;;;;5035531;28;20472;-77
2023/09/11 01:11:00;;;;;;;8.73;8.03;;;31.10;50.80;;;;;;5035313;28;20459;-77
2023/09/11 01:13:28;;;;;;;9.10;8.37;;;31.10;50.90;;;;;;5035609;28;20436;-79
2023/09/11 01:16:03;;;;;;;8.80;8.10;;;31.00;50.80;;;;;;5035581;28;20485;-79
2023/09/11 01:18:35;;;;;;;9.23;8.43;;;31.00;50.90;;;;;;5036919;28;20416;-78
2023/09/11 01:21:32;;;;;;;9.00;8.30;;;31.00;51.00;;;;;;5036783;28;20487;-79
2023/09/11 01:24:17;;;;;;;8.60;7.90;;;31.00;50.90;;;;;;5036370;28;20530;-79
2023/09/11 01:27:12;;;;;;;8.33;7.63;;;31.00;51.00;;;;;;5036842;28;20486;-79
2023/09/11 01:29:42;;;;;;;8.83;8.10;;;31.00;51.00;;;;;;5033214;28;20450;-78
2023/09/11 01:32:10;;;;;;;9.40;8.53;;;30.90;51.00;;;;;;5037274;28;20499;-78
2023/09/11 01:34:39;;;;;;;9.03;8.23;;;30.90;51.10;;;;;;5037304;28;20455;-78
2023/09/11 01:37:07;;;;;;;9.50;8.60;;;30.90;51.10;;;;;;5034271;28;20534;-78
2023/09/11 01:39:35;;;;;;;8.77;8.07;;;30.90;51.20;;;;;;5033774;28;20415;-79
2023/09/11 01:42:07;;;;;;;8.77;8.00;;;30.90;51.10;;;;;;5033225;28;20450;-77
2023/09/11 01:44:40;;;;;;;8.10;7.50;;;30.90;51.20;;;;;;5033864;28;20432;-77
2023/09/11 01:47:10;;;;;;;8.73;7.93;;;30.90;51.10;;;;;;5033446;28;20563;-78
2023/09/11 01:49:38;;;;;;;9.43;8.63;;;30.80;51.30;;;;;;5033301;28;20481;-78
2023/09/11 01:52:07;;;;;;;9.33;8.50;;;30.80;51.10;;;;;;5034515;28;20554;-78
2023/09/11 01:54:36;;;;;;;8.63;7.93;;;30.80;51.20;;;;;;5033273;28;20509;-78
2023/09/11 01:57:04;;;;;;;7.97;7.37;;;30.70;51.20;;;;;;5032237;28;20477;-77
2023/09/11 01:59:32;;;;;;;8.77;8.07;;;30.70;51.20;;;;;;5032297;28;20435;-76
2023/09/11 02:02:00;;;;;;;8.40;7.73;;;30.70;51.30;;;;;;5032627;28;20466;-77
2023/09/11 02:04:29;;;;;;;9.97;9.10;;;30.70;51.10;;;;;;5031779;28;20513;-77
2023/09/11 02:06:57;;;;;;;8.90;8.20;;;30.70;51.20;;;;;;5031974;28;20446;-77
2023/09/11 02:09:25;;;;;;;7.13;6.63;;;30.70;51.30;;;;;;5031710;28;20568;-77
2023/09/11 02:11:53;;;;;;;8.37;7.67;;;30.70;51.40;;;;;;5032135;28;20542;-77
2023/09/11 02:14:21;;;;;;;8.60;7.90;;;30.60;51.30;;;;;;5033103;28;20410;-78
2023/09/11 02:16:49;;;;;;;8.87;8.17;;;30.60;51.40;;;;;;5034437;28;20410;-78
2023/09/11 02:19:17;;;;;;;8.73;8.03;;;30.60;51.30;;;;;;5033538;28;20420;-78
2023/09/11 02:21:46;;;;;;;8.20;7.60;;;30.60;51.40;;;;;;5033285;28;20533;-77
2023/09/11 02:24:14;;;;;;;9.00;8.30;;;30.60;51.50;;;;;;5033041;28;20497;-78
2023/09/11 02:26:42;;;;;;;9.27;8.43;;;30.50;51.50;;;;;;5032827;28;20904;-77
2023/09/11 02:29:10;;;;;;;8.57;7.70;;;30.50;51.50;;;;;;5032300;28;20488;-78
2023/09/11 02:31:38;;;;;;;8.30;7.60;;;30.50;51.40;;;;;;5031960;28;20525;-78
2023/09/11 02:34:06;;;;;;;8.77;8.07;;;30.50;51.60;;;;;;5031465;28;20451;-77
2023/09/11 02:36:34;;;;;;;8.47;7.87;;;30.50;51.50;;;;;;5031997;28;20533;-77
2023/09/11 02:39:04;;;;;;;8.10;7.47;;;30.50;51.50;;;;;;5032529;28;20497;-77
2023/09/11 02:41:31;;;;;;;8.97;8.27;;;30.50;51.50;;;;;;5032182;28;20442;-76
2023/09/11 02:43:59;;;;;;;8.40;7.60;;;30.50;51.70;;;;;;5031645;28;20410;-78
2023/09/11 02:46:27;;;;;;;8.73;8.03;;;30.50;51.60;;;;;;5031365;28;20443;-77
2023/09/11 02:48:55;;;;;;;9.40;8.60;;;30.50;51.50;;;;;;5031473;28;20453;-77
2023/09/11 02:51:25;;;;;;;8.63;7.90;;;30.50;51.60;;;;;;5031386;28;20490;-77
2023/09/11 02:53:53;;;;;;;11.53;8.73;;;30.40;51.60;;;;;;5046913;28;20410;-78
2023/09/11 02:56:22;;;;;;;9.37;8.57;;;30.40;51.70;;;;;;5055843;28;20417;-78
2023/09/11 02:58:51;;;;;;;9.20;8.40;;;30.40;51.70;;;;;;5054486;28;20410;-77
2023/09/11 03:01:18;;;;;;;8.30;7.70;;;30.40;51.80;;;;;;5034777;28;20523;-77
2023/09/11 03:03:47;;;;;;;8.73;8.03;;;30.30;51.70;;;;;;5032223;28;20996;-77
2023/09/11 03:06:14;;;;;;;8.53;7.83;;;30.30;51.70;;;;;;5032267;28;20439;-77
2023/09/11 03:08:43;;;;;;;9.23;8.40;;;30.30;51.70;;;;;;5032219;28;20451;-77
2023/09/11 03:11:11;;;;;;;8.40;7.80;;;30.30;51.80;;;;;;5031169;28;20479;-77
2023/09/11 03:13:41;;;;;;;9.20;8.40;;;30.30;51.80;;;;;;5031105;28;20462;-77
2023/09/11 03:16:10;;;;;;;9.03;8.23;;;30.30;51.80;;;;;;5030826;28;20498;-76
2023/09/11 03:18:38;;;;;;;9.03;8.33;;;30.20;51.70;;;;;;5031639;28;20413;-77
2023/09/11 03:21:07;;;;;;;8.70;8.00;;;30.20;51.70;;;;;;5033254;28;20513;-77
2023/09/11 03:23:35;;;;;;;8.30;7.67;;;30.20;51.90;;;;;;5035288;28;20422;-77
2023/09/11 03:26:03;;;;;;;8.73;8.00;;;30.20;51.90;;;;;;5036197;28;20418;-77
2023/09/11 03:28:31;;;;;;;9.40;8.60;;;30.10;52.00;;;;;;5035579;28;20531;-77
2023/09/11 03:31:02;;;;;;;8.03;7.40;;;30.20;51.90;;;;;;5035245;28;20479;-77
2023/09/11 03:33:30;;;;;;;9.67;8.77;;;30.10;51.90;;;;;;5036854;28;20877;-77
2023/09/11 03:35:59;;;;;;;8.93;8.23;;;30.10;51.90;;;;;;5036282;28;20912;-78
2023/09/11 03:38:27;;;;;;;9.37;8.40;;;30.10;51.90;;;;;;5036184;28;20413;-77
2023/09/11 03:40:55;;;;;;;8.53;7.83;;;30.10;52.00;;;;;;5036490;28;20433;-78
2023/09/11 03:43:24;;;;;;;8.73;8.00;;;30.10;52.10;;;;;;5035823;28;20450;-79
2023/09/11 03:45:51;;;;;;;8.50;7.80;;;30.10;52.10;;;;;;5036702;28;20446;-79
2023/09/11 03:48:21;;;;;;;9.03;8.20;;;30.10;52.00;;;;;;5038757;28;20432;-79
2023/09/11 03:50:49;;;;;;;8.50;7.80;;;30.00;51.90;;;;;;5038660;28;20529;-79
2023/09/11 03:53:17;;;;;;;8.20;7.60;;;30.00;52.10;;;;;;5038354;28;20438;-79
2023/09/11 03:55:45;;;;;;;9.40;8.50;;;30.00;52.00;;;;;;5036899;28;20445;-78
2023/09/11 03:58:14;;;;;;;8.40;7.70;;;30.00;52.20;;;;;;5034925;28;20462;-78
2023/09/11 04:00:41;;;;;;;8.40;7.80;;;30.00;52.30;;;;;;5034921;28;20517;-78
2023/09/11 04:03:10;;;;;;;8.80;8.10;;;30.00;52.10;;;;;;5034931;28;20431;-79
2023/09/11 04:05:39;;;;;;;8.17;7.57;;;30.00;52.10;;;;;;5034535;28;20439;-78
2023/09/11 04:08:07;;;;;;;8.23;7.63;;;29.90;52.10;;;;;;5035331;28;20539;-79
2023/09/11 04:10:35;;;;;;;8.70;7.90;;;29.90;52.20;;;;;;5036042;28;20499;-78
2023/09/11 04:13:03;;;;;;;8.53;7.83;;;29.90;52.10;;;;;;5036976;28;20474;-78
2023/09/11 04:15:31;;;;;;;8.20;7.50;;;29.90;52.40;;;;;;5036409;28;20474;-78
2023/09/11 04:17:59;;;;;;;8.63;7.93;;;29.80;52.20;;;;;;5035126;28;20418;-78
2023/09/11 04:20:33;;;;;;;8.47;7.77;;;29.80;52.10;;;;;;5034622;28;20835;-79
2023/09/11 04:23:02;;;;;;;8.00;7.40;;;29.80;52.20;;;;;;5034051;28;20418;-78
2023/09/11 04:25:30;;;;;;;8.53;7.83;;;29.80;52.20;;;;;;5033804;28;20493;-78
2023/09/11 04:27:58;;;;;;;8.00;7.30;;;29.80;52.30;;;;;;5034309;28;20439;-79
2023/09/11 04:30:26;;;;;;;7.90;7.30;;;29.80;52.30;;;;;;5034168;28;20456;-78
2023/09/11 04:32:54;;;;;;;8.37;7.77;;;29.80;52.20;;;;;;5034181;28;20929;-78
2023/09/11 04:35:23;;;;;;;8.67;7.97;;;29.80;52.30;;;;;;5033957;28;20478;-78
2023/09/11 04:37:51;;;;;;;8.10;7.50;;;29.70;52.10;;;;;;5033949;28;20421;-78
2023/09/11 04:40:20;;;;;;;8.40;7.60;;;29.70;52.50;;;;;;5034037;28;20958;-78
2023/09/11 04:42:48;;;;;;;7.50;6.97;;;29.70;52.40;;;;;;5033980;28;20406;-78
2023/09/11 04:45:16;;;;;;;8.03;7.40;;;29.70;52.20;;;;;;5033708;28;20439;-78
2023/09/11 04:47:44;;;;;;;7.83;7.23;;;29.70;52.20;;;;;;5033918;28;20452;-77
2023/09/11 04:50:12;;;;;;;8.20;7.60;;;29.70;52.40;;;;;;5034829;28;20985;-78
2023/09/11 04:52:40;;;;;;;7.40;6.90;;;29.70;52.40;;;;;;5035170;28;20429;-78
2023/09/11 04:55:09;;;;;;;7.87;7.20;;;29.60;52.60;;;;;;5034786;28;20530;-77
2023/09/11 04:57:39;;;;;;;8.00;7.40;;;29.60;52.30;;;;;;5034095;28;20488;-78
2023/09/11 05:00:10;;;;;;;7.70;7.10;;;29.60;52.20;;;;;;5033724;28;20454;-79
2023/09/11 05:02:38;;;;;;;8.33;7.60;;;29.60;52.70;;;;;;5035573;28;20460;-79
2023/09/11 05:05:06;;;;;;;10.30;7.50;;;29.60;52.50;;;;;;5035434;28;20417;-79
2023/09/11 05:07:34;;;;;;;8.30;7.60;;;29.60;52.60;;;;;;5035836;28;20414;-79
2023/09/11 05:10:05;;;;;;;8.13;7.43;;;29.60;52.60;;;;;;5034109;28;20413;-79
2023/09/11 05:12:33;;;;;;;7.70;7.13;;;29.60;52.70;;;;;;5035392;28;20862;-78
2023/09/11 05:15:02;;;;;;;8.43;7.77;;;29.50;52.40;;;;;;5036170;28;20497;-78
2023/09/11 05:17:30;;;;;;;8.00;7.30;;;29.50;52.60;;;;;;5033540;28;20474;-78
2023/09/11 05:19:58;;;;;;;8.57;7.87;;;29.50;52.80;;;;;;5033122;28;20475;-78
2023/09/11 05:22:27;;;;;;;8.70;8.00;;;29.50;52.50;;;;;;5033335;28;20452;-77
2023/09/11 05:24:55;;;;;;;8.23;7.53;;;29.50;52.60;;;;;;5037052;28;20423;-78
2023/09/11 05:27:23;;;;;;;8.17;7.37;;;29.50;52.60;;;;;;5034742;28;20422;-78
2023/09/11 05:29:52;;;;;;;8.33;7.63;;;29.50;52.60;;;;;;5034119;28;20501;-78
2023/09/11 05:32:23;;;;;;;8.70;8.00;;;29.50;52.40;;;;;;5038393;28;20983;-78
2023/09/11 05:34:51;;;;;;;8.60;7.90;;;29.50;52.60;;;;;;5039234;28;20418;-78
2023/09/11 05:37:19;;;;;;;8.83;8.03;;;29.50;52.70;;;;;;5039272;28;20422;-79
2023/09/11 05:39:47;;;;;;;8.90;8.20;;;29.50;52.60;;;;;;5039475;28;20455;-79
2023/09/11 05:42:16;;;;;;;8.70;8.00;;;29.50;52.60;;;;;;5036917;28;20492;-80
2023/09/11 05:44:44;;;;;;;10.57;7.73;;;29.40;52.40;;;;;;5037008;28;20421;-79
2023/09/11 05:47:13;;;;;;;9.00;8.20;;;29.40;52.70;;;;;;5041108;28;20417;-79
2023/09/11 05:49:42;;;;;;;7.53;6.93;;;29.40;52.90;;;;;;5041090;28;20991;-80
2023/09/11 05:52:11;;;;;;;8.80;8.00;;;29.40;52.70;;;;;;5041756;28;20509;-78
2023/09/11 05:54:41;;;;;;;8.60;7.90;;;29.40;52.60;;;;;;5041906;28;20478;-79
2023/09/11 05:57:09;;;;;;;9.00;8.20;;;29.40;52.50;;;;;;5041830;28;20421;-79
2023/09/11 05:59:38;;;;;;;9.07;8.27;;;29.40;52.90;;;;;;5043458;28;20447;-79
2023/09/11 06:02:07;;;;;;;9.00;8.20;;;29.40;52.60;;;;;;5040243;28;20467;-79
2023/09/11 06:04:35;;;;;;;9.80;8.90;;;29.40;52.70;;;;;;5056447;28;20431;-80
2023/09/11 06:07:06;;;;;;;10.10;8.20;;;29.30;52.80;;;;;;5057892;28;20415;-81
2023/09/11 06:09:35;;;;;;;11.03;9.90;;;29.30;53.00;;;;;;5049911;28;20410;-80
2023/09/11 06:12:04;;;;;;;10.07;9.17;;;29.40;52.80;;;;;;5039651;28;20472;-79
2023/09/11 06:14:36;;;;;;;9.37;8.60;;;29.40;52.90;;;;;;5040304;28;20429;-80
2023/09/11 06:17:05;;;;;;;9.47;8.67;;;29.40;52.80;;;;;;5039520;28;20436;-78
2023/09/11 06:19:34;;;;;;;9.33;8.53;;;29.40;52.70;;;;;;5035875;28;20509;-78
2023/09/11 06:22:05;;;;;;;9.13;8.37;;;29.40;52.60;;;;;;5035693;28;20476;-79
2023/09/11 06:24:34;;;;;;;9.87;8.97;;;29.40;52.90;;;;;;5035967;28;20445;-79
2023/09/11 06:27:14;;;;;;;9.07;8.37;;;29.40;52.80;;;;;;5036162;28;20490;-80
2023/09/11 06:29:43;;;;;;;9.20;8.40;;;29.40;52.60;;;;;;5038314;28;20509;-81
2023/09/11 06:32:15;;;;;;;8.83;8.10;;;29.40;52.70;;;;;;5039436;28;20506;-78
2023/09/11 06:34:53;;;;;;;9.50;8.70;;;29.40;52.80;;;;;;5037947;28;20422;-79
2023/09/11 06:37:32;;;;;;;9.83;9.00;;;29.40;52.80;;;;;;5038342;28;20437;-78
2023/09/11 06:40:02;;;;;;;9.47;8.67;;;29.30;52.80;;;;;;5037111;28;20442;-79
2023/09/11 06:42:30;;;;;;;9.57;8.70;;;29.40;52.60;;;;;;5036132;28;20446;-79
2023/09/11 06:44:59;;;;;;;10.43;9.43;;;29.40;52.80;;;;;;5033539;28;20526;-79
2023/09/11 06:47:28;;;;;;;8.63;7.93;;;29.40;52.70;;;;;;5032336;28;20460;-77
2023/09/11 06:49:56;;;;;;;8.40;7.70;;;29.40;52.70;;;;;;5032203;28;20430;-78
2023/09/11 06:52:26;;;;;;;9.87;8.97;;;29.40;52.70;;;;;;5031731;28;20507;-77
2023/09/11 06:54:54;;;;;;;9.67;8.77;;;29.50;52.60;;;;;;5033366;28;20454;-79
2023/09/11 06:57:23;;;;;;;8.47;7.77;;;29.50;52.70;;;;;;5032645;28;20418;-79
2023/09/11 06:59:52;;;;;;;8.77;7.97;;;29.50;52.70;;;;;;5032031;28;20506;-78
2023/09/11 07:02:20;;;;;;;9.13;8.30;;;29.50;52.60;;;;;;5032389;28;20443;-77
2023/09/11 07:04:49;;;;;;;9.27;8.47;;;29.50;52.80;;;;;;5032669;28;20452;-79
2023/09/11 07:07:17;;;;;;;8.93;8.10;;;29.50;52.40;;;;;;5031528;28;20478;-78
2023/09/11 07:09:47;;;;;;;9.23;8.47;;;29.50;52.60;;;;;;5031132;28;20439;-77
2023/09/11 07:12:20;;;;;;;8.70;8.00;;;29.60;52.50;;;;;;5031380;28;20471;-79
2023/09/11 07:14:50;;;;;;;8.70;7.93;;;29.60;52.50;;;;;;5031180;28;20812;-76
2023/09/11 07:17:18;;;;;;;8.67;7.87;;;29.50;52.50;;;;;;5031132;28;20443;-78
2023/09/11 07:19:47;;;;;;;8.87;8.10;;;29.60;52.50;;;;;;5031096;28;20505;-78
2023/09/11 07:22:15;;;;;;;8.83;8.03;;;29.60;52.30;;;;;;5031139;28;20427;-79
2023/09/11 07:24:43;;;;;;;8.80;7.97;;;29.60;52.40;;;;;;5031083;28;20414;-79
2023/09/11 07:27:12;;;;;;;8.90;8.10;;;29.60;52.20;;;;;;5030857;28;20961;-78
2023/09/11 07:29:40;;;;;;;8.57;7.77;;;29.70;52.30;;;;;;5031151;28;20479;-79
2023/09/11 07:32:08;;;;;;;9.00;8.27;;;29.70;52.20;;;;;;5031261;28;20489;-77
2023/09/11 07:34:36;;;;;;;9.07;8.33;;;29.70;52.20;;;;;;5030675;28;20436;-78
2023/09/11 07:37:04;;;;;;;9.33;8.53;;;29.80;52.20;;;;;;5031241;28;20474;-78
2023/09/11 07:39:32;;;;;;;8.90;8.10;;;29.70;52.10;;;;;;5031214;28;20492;-80
2023/09/11 07:42:00;;;;;;;8.27;7.50;;;29.80;52.20;;;;;;5030987;28;20994;-79
2023/09/11 07:44:30;;;;;;;8.47;7.83;;;29.80;52.00;;;;;;5031262;28;20541;-78
2023/09/11 07:46:58;;;;;;;8.40;7.70;;;29.80;52.00;;;;;;5032825;28;20489;-78
2023/09/11 07:49:26;;;;;;;8.90;8.10;;;29.90;52.00;;;;;;5034865;28;20414;-77
2023/09/11 07:51:55;;;;;;;9.40;8.60;;;29.90;51.90;;;;;;5034688;28;20450;-78
2023/09/11 07:54:24;;;;;;;9.10;8.30;;;30.00;51.90;;;;;;5036112;28;20510;-79
2023/09/11 07:56:53;;;;;;;8.93;8.13;;;30.10;51.90;;;;;;5037458;28;20488;-77
2023/09/11 07:59:21;;;;;;;9.03;8.23;;;30.10;51.70;;;;;;5038931;28;20425;-80
2023/09/11 08:01:54;;;;;;;9.40;8.50;;;30.20;51.60;;;;;;5036835;28;20850;-79
2023/09/11 08:04:23;;;;;;;8.67;7.97;;;30.30;51.50;;;;;;5034897;28;20998;-78
2023/09/11 08:06:51;;;;;;;8.60;7.90;;;30.40;51.40;;;;;;5040315;28;20512;-79
2023/09/11 08:09:19;;;;;;;8.00;7.30;;;30.50;51.20;;;;;;5037861;28;20474;-78
2023/09/11 08:11:50;;;;;;;8.87;7.97;;;30.70;51.10;;;;;;5039228;28;20446;-79
2023/09/11 08:14:21;;;;;;;8.40;7.60;;;30.80;50.80;;;;;;5040686;28;20446;-79
2023/09/11 08:16:51;;;;;;;7.43;6.90;;;31.00;50.80;;;;;;5043439;28;20403;-78
2023/09/11 08:19:19;;;;;;;8.70;7.90;;;31.10;50.60;;;;;;5042547;28;20507;-79
2023/09/11 08:21:48;;;;;;;8.77;8.00;;;31.30;50.40;;;;;;5038803;28;20517;-78
2023/09/11 08:24:16;;;;;;;7.67;7.10;;;31.50;50.10;;;;;;5039172;28;20493;-80
2023/09/11 08:26:44;;;;;;;7.67;7.07;;;31.70;49.90;;;;;;5039279;28;20490;-80
2023/09/11 08:29:15;;;;;;;8.37;7.67;;;31.90;49.80;;;;;;5039490;28;20447;-80
2023/09/11 08:31:43;;;;;;;7.63;6.93;;;32.10;49.50;;;;;;5038387;28;20459;-80
2023/09/11 08:34:13;;;;;;;7.63;6.93;;;32.30;49.30;;;;;;5038812;28;20498;-80
2023/09/11 08:36:41;;;;;;;7.37;6.87;;;32.40;49.10;;;;;;5038822;28;20446;-80
2023/09/11 08:39:12;;;;;;;7.17;6.67;;;32.60;48.90;;;;;;5039241;28;20505;-80
2023/09/11 08:41:41;;;;;;;8.13;7.03;;;32.80;48.70;;;;;;5038806;28;20487;-81
2023/09/11 08:44:09;;;;;;;8.00;7.30;;;33.00;48.50;;;;;;5038113;28;20450;-80
2023/09/11 08:46:37;;;;;;;7.40;6.80;;;33.20;48.30;;;;;;5038465;28;20447;-81
2023/09/11 08:49:06;;;;;;;7.50;6.77;;;33.30;48.10;;;;;;5037523;28;20509;-80
2023/09/11 08:51:38;;;;;;;6.93;6.33;;;33.40;48.00;;;;;;5036839;28;20518;-80
2023/09/11 08:54:09;;;;;;;7.10;6.60;;;33.60;47.80;;;;;;5036721;28;20479;-79
2023/09/11 08:56:38;;;;;;;7.03;6.43;;;33.70;47.50;;;;;;5037162;28;20538;-80
2023/09/11 08:59:06;;;;;;;9.33;7.57;;;33.90;47.50;;;;;;5038314;28;20435;-80
2023/09/11 09:01:34;;;;;;;8.20;6.90;;;34.00;47.40;;;;;;5036945;28;20460;-80
2023/09/11 09:04:04;;;;;;;6.83;6.23;;;34.10;47.20;;;;;;5037215;28;20453;-79
2023/09/11 09:06:33;;;;;;;8.70;6.90;;;34.30;47.10;;;;;;5037490;28;20454;-80
2023/09/11 09:09:03;;;;;;;7.07;6.57;;;34.50;46.90;;;;;;5039019;28;20450;-79
2023/09/11 09:11:31;;;;;;;7.43;6.73;;;34.60;46.70;;;;;;5040278;28;20490;-80
2023/09/11 09:14:00;;;;;;;9.53;6.50;;;34.80;46.60;;;;;;5055425;28;20494;-80
2023/09/11 09:16:28;;;;;;;10.50;6.50;;;35.00;46.40;;;;;;5057585;28;20428;-79
2023/09/11 09:18:57;;;;;;;7.63;6.67;;;35.10;46.20;;;;;;5049344;28;20511;-79
2023/09/11 09:21:27;;;;;;;6.70;6.00;;;35.20;46.00;;;;;;5040846;28;20468;-79
2023/09/11 09:23:56;;;;;;;7.17;6.53;;;35.40;45.90;;;;;;5036986;28;20522;-80
2023/09/11 09:26:25;;;;;;;7.47;6.50;;;35.50;45.60;;;;;;5039103;28;20454;-80
2023/09/11 09:28:56;;;;;;;7.73;6.70;;;35.70;45.60;;;;;;5037181;28;20558;-80
2023/09/11 09:31:28;;;;;;;7.27;6.53;;;35.90;45.50;;;;;;5036429;28;20487;-80
2023/09/11 09:34:00;;;;;;;6.13;5.60;;;36.00;45.30;;;;;;5034718;28;20985;-78
2023/09/11 09:36:29;;;;;;;6.67;6.10;;;36.10;45.10;;;;;;5032827;28;21020;-78
2023/09/11 09:38:57;;;;;;;6.37;5.87;;;36.30;45.00;;;;;;5032690;28;20895;-79
2023/09/11 09:41:27;;;;;;;6.93;6.23;;;36.50;44.90;;;;;;5050356;22;20558;-79
2023/09/11 09:43:55;;;;;;;6.00;5.40;;;36.60;44.60;;;;;;5053213;28;20473;-79
2023/09/11 09:46:23;;;;;;;5.93;5.43;;;36.80;44.50;;;;;;5052197;28;20507;-79
2023/09/11 09:48:51;;;;;;;6.67;6.00;;;37.00;44.20;;;;;;5052716;28;20434;-79
2023/09/11 09:51:21;;;;;;;6.10;5.60;;;37.10;44.00;;;;;;5052661;28;20459;-80
2023/09/11 09:53:49;;;;;;;6.70;6.00;;;37.30;43.90;;;;;;5053591;28;20581;-80
2023/09/11 09:56:17;;;;;;;5.90;5.40;;;37.50;43.80;;;;;;5052827;28;20439;-79
2023/09/11 09:58:47;;;;;;;5.87;5.13;;;37.60;43.50;;;;;;5052042;28;20475;-79
2023/09/11 10:01:16;;;;;;;5.93;5.43;;;37.80;43.30;;;;;;5051669;28;20470;-77
2023/09/11 10:03:46;;;;;;;6.23;5.50;;;37.90;43.10;;;;;;5052467;28;20437;-80
2023/09/11 10:06:16;;;;;;;5.80;5.50;;;38.10;43.00;;;;;;5053785;28;20480;-79
2023/09/11 10:08:44;;;;;;;5.80;5.40;;;38.20;42.80;;;;;;5053724;28;20478;-79
2023/09/11 10:11:28;;;;;;;5.17;4.80;;;38.40;42.80;;;;;;5056718;28;20549;-80
2023/09/11 10:13:58;;;;;;;5.50;5.07;;;38.60;42.70;;;;;;5055510;28;20552;-79
2023/09/11 10:16:26;;;;;;;5.77;5.27;;;38.70;42.40;;;;;;5052431;28;20930;-77
2023/09/11 10:18:55;;;;;;;5.70;5.00;;;38.80;42.30;;;;;;5053467;28;20450;-78
2023/09/11 10:21:24;;;;;;;5.70;5.30;;;39.00;42.10;;;;;;5055634;28;20502;-82
2023/09/11 10:23:52;;;;;;;6.17;5.20;;;39.10;41.90;;;;;;5056578;28;20510;-79
2023/09/11 10:26:23;;;;;;;7.13;5.30;;;39.30;41.80;;;;;;5057020;28;20435;-82
2023/09/11 10:28:53;;;;;;;5.10;4.80;;;39.40;41.70;;;;;;5056584;28;20525;-81
2023/09/11 10:31:24;;;;;;;4.80;4.50;;;39.50;41.50;;;;;;5057261;28;20450;-80
2023/09/11 10:33:55;;;;;;;5.90;5.33;;;39.70;41.40;;;;;;5056654;28;20484;-80
2023/09/11 10:36:23;;;;;;;5.37;4.83;;;39.80;41.40;;;;;;5055524;28;20450;-78
2023/09/11 10:38:53;;;;;;;5.23;4.73;;;40.00;41.10;;;;;;5056303;28;20442;-80
2023/09/11 10:41:21;;;;;;;5.23;4.73;;;40.10;41.00;;;;;;5056529;28;20531;-81
2023/09/11 10:43:49;;;;;;;4.57;4.27;;;40.20;40.80;;;;;;5056453;28;20461;-80
2023/09/11 10:46:33;;;;;;;5.43;4.93;;;40.40;40.70;;;;;;5056454;28;20536;-83
2023/09/11 10:49:02;;;;;;;5.10;4.63;;;40.40;40.50;;;;;;5056633;28;20442;-80
2023/09/11 10:51:30;;;;;;;5.07;4.73;;;40.60;40.30;;;;;;5055946;28;20493;-80
2023/09/11 10:53:59;;;;;;;5.17;4.67;;;40.70;40.20;;;;;;5056110;28;20529;-80
2023/09/11 10:56:27;;;;;;;5.00;4.50;;;40.80;40.00;;;;;;5055884;28;20470;-81
2023/09/11 10:58:55;;;;;;;4.80;4.50;;;40.90;39.90;;;;;;5055940;28;20529;-81
2023/09/11 11:01:23;;;;;;;4.70;4.27;;;41.10;39.80;;;;;;5054923;28;20516;-77
2023/09/11 11:03:53;;;;;;;5.30;4.80;;;41.20;39.70;;;;;;5057143;28;20446;-80
2023/09/11 11:06:23;;;;;;;4.50;4.10;;;41.30;39.50;;;;;;5056963;28;20861;-78
2023/09/11 11:08:51;;;;;;;5.73;4.40;;;41.40;39.30;;;;;;5057000;28;20450;-79
2023/09/11 11:11:22;;;;;;;5.37;4.63;;;41.50;39.20;;;;;;5058259;28;20462;-80
2023/09/11 11:14:17;;;;;;;5.07;4.53;;;41.70;39.20;;;;;;5056909;28;20553;-82
2023/09/11 11:16:56;;;;;;;5.30;4.80;;;41.80;39.00;;;;;;5056892;28;20513;-80
2023/09/11 11:19:29;;;;;;;4.33;3.93;;;41.90;38.80;;;;;;5056436;28;20519;-78
2023/09/11 11:21:58;;;;;;;5.17;4.77;;;42.00;38.70;;;;;;5057081;28;20493;-79
2023/09/11 11:24:26;;;;;;;7.80;4.50;;;42.10;38.60;;;;;;5056544;28;20442;-79
2023/09/11 11:26:56;;;;;;;5.80;4.00;;;42.30;38.60;;;;;;5057115;28;20438;-80
2023/09/11 11:29:26;;;;;;;4.67;4.23;;;42.30;38.30;;;;;;5057240;28;20479;-80
2023/09/11 11:31:57;;;;;;;4.90;4.50;;;42.40;38.20;;;;;;5057523;28;20470;-81
2023/09/11 11:34:31;;;;;;;4.63;4.30;;;42.50;38.10;;;;;;5056753;28;20505;-80
2023/09/11 11:37:03;;;;;;;9.73;4.53;;;42.60;38.10;;;;;;5055616;28;20450;-77
2023/09/11 11:39:35;;;;;;;5.03;4.50;;;42.70;38.00;;;;;;5056441;28;20442;-81
2023/09/11 11:42:05;;;;;;;4.60;3.90;;;42.80;37.80;;;;;;5056285;28;20474;-80
2023/09/11 11:44:35;;;;;;;5.70;4.20;;;42.90;37.80;;;;;;5058847;28;20448;-80
2023/09/11 11:47:05;;;;;;;5.33;4.20;;;43.00;37.80;;;;;;5058244;28;20446;-80
2023/09/11 11:49:37;;;;;;;6.60;4.03;;;43.10;37.60;;;;;;5061072;28;20472;-81
2023/09/11 11:52:08;;;;;;;4.10;3.90;;;43.20;37.60;;;;;;5060099;28;20492;-78
2023/09/11 11:54:38;;;;;;;9.43;4.27;;;43.20;37.50;;;;;;5057884;28;20499;-80
2023/09/11 11:57:07;;;;;;;4.87;3.97;;;43.40;37.40;;;;;;5057211;28;20477;-79
2023/09/11 11:59:39;;;;;;;4.43;4.13;;;43.40;37.10;;;;;;5055840;28;20442;-79
2023/09/11 12:02:20;;;;;;;4.17;3.90;;;43.50;37.10;;;;;;5059554;28;20453;-79
2023/09/11 12:04:56;;;;;;;4.17;3.87;;;43.60;37.10;;;;;;5058535;28;20533;-80
2023/09/11 12:07:24;;;;;;;4.10;3.70;;;43.70;37.00;;;;;;5058008;28;20480;-80
2023/09/11 12:09:54;;;;;;;4.30;3.93;;;43.70;36.80;;;;;;5059349;28;20442;-82
2023/09/11 12:12:22;;;;;;;4.50;4.10;;;43.80;36.70;;;;;;5060377;28;20474;-80
2023/09/11 12:14:56;;;;;;;4.23;4.03;;;43.90;36.60;;;;;;5058928;28;20515;-83
2023/09/11 12:17:25;;;;;;;4.60;4.30;;;43.90;36.50;;;;;;5059331;28;20830;-80
2023/09/11 12:20:14;;;;;;;3.90;3.70;;;44.00;36.40;;;;;;5059220;28;20481;-80
2023/09/11 12:22:44;;;;;;;4.10;3.80;;;44.10;36.40;;;;;;5057840;28;20462;-81
2023/09/11 12:25:13;;;;;;;4.40;3.70;;;44.10;36.10;;;;;;5057579;28;20987;-80
2023/09/11 12:27:43;;;;;;;3.87;3.60;;;44.10;36.10;;;;;;5057473;28;20469;-80
2023/09/11 12:30:12;;;;;;;4.13;3.73;;;44.20;36.10;;;;;;5058275;28;20480;-82
2023/09/11 12:32:45;;;;;;;3.97;3.77;;;44.20;35.90;;;;;;5059278;28;21030;-79
2023/09/11 12:35:15;;;;;;;4.70;3.80;;;44.30;35.80;;;;;;5058850;28;20500;-80
2023/09/11 12:37:43;;;;;;;8.57;4.20;;;44.30;35.80;;;;;;5057984;28;20470;-80
2023/09/11 12:40:13;;;;;;;4.00;3.77;;;44.40;35.70;;;;;;5057182;28;20481;-80
2023/09/11 12:42:42;;;;;;;5.80;3.83;;;44.40;35.70;;;;;;5058153;28;20469;-79
2023/09/11 12:45:12;;;;;;;5.63;4.03;;;44.40;35.60;;;;;;5058039;28;20501;-79
2023/09/11 12:47:41;;;;;;;3.80;3.50;;;44.50;35.40;;;;;;5055845;28;20473;-79
2023/09/11 12:50:10;;;;;;;3.50;3.40;;;44.50;35.30;;;;;;5056020;28;20533;-79
2023/09/11 12:52:42;;;;;;;3.77;3.47;;;44.50;35.50;;;;;;5055576;28;20925;-77
2023/09/11 12:55:13;;;;;;;4.60;4.20;;;44.60;35.60;;;;;;5057995;28;20553;-80
2023/09/11 12:57:41;;;;;;;4.43;4.00;;;44.60;35.40;;;;;;5057482;28;20446;-79